Time;durP1;ratioP1;P1;durP2;ratioP2;P2;SDS_P1;SDS_P2;PMS_P1;PMS_P2;Temp;Humidity;BMP_temperature;BMP_pressure;BME280_temperature;BME280_humidity;BME280_pressure;Samples;Min_cycle;Max_cycle;Signal;HPM_P1;HPM_P2
2023/05/30 00:00:13;;;;;;;10.70;6.10;;;;;;;;;;5048838;28;20017;-75
2023/05/30 00:02:41;;;;;;;12.60;6.85;;;;;;;;;;5049003;28;20029;-75
2023/05/30 00:05:06;;;;;;;14.57;6.68;;;;;;;;;;5048633;28;20025;-75
2023/05/30 00:07:32;;;;;;;12.40;6.00;;;;;;;;;;5063505;28;20567;-75
2023/05/30 00:09:57;;;;;;;9.77;5.78;;;;;;;;;;5048567;28;20083;-74
2023/05/30 00:12:23;;;;;;;10.25;5.40;;;;;;;;;;5048580;28;20029;-75
2023/05/30 00:14:48;;;;;;;11.88;6.20;;;;;;;;;;5048779;28;20074;-74
2023/05/30 00:17:16;;;;;;;12.68;6.43;;;;;;;;;;5048468;28;20025;-74
2023/05/30 00:19:42;;;;;;;10.07;4.70;;;;;;;;;;5048511;28;20425;-74
2023/05/30 00:22:08;;;;;;;8.43;4.00;;;;;;;;;;5047976;28;20033;-75
2023/05/30 00:24:34;;;;;;;6.10;3.72;;;;;;;;;;5048521;28;20025;-75
2023/05/30 00:27:00;;;;;;;10.82;4.53;;;;;;;;;;5048279;28;20393;-75
2023/05/30 00:29:25;;;;;;;9.52;4.93;;;;;;;;;;5048624;28;20056;-75
2023/05/30 00:31:51;;;;;;;13.07;4.63;;;;;;;;;;5048463;28;20056;-75
2023/05/30 00:34:16;;;;;;;11.57;5.07;;;;;;;;;;5048601;28;20461;-75
2023/05/30 00:36:42;;;;;;;11.23;5.38;;;;;;;;;;5047777;28;20082;-75
2023/05/30 00:39:07;;;;;;;11.68;5.20;;;;;;;;;;5052053;28;20048;-75
2023/05/30 00:41:33;;;;;;;8.95;4.70;;;;;;;;;;5052250;28;20510;-75
2023/05/30 00:43:58;;;;;;;8.50;4.63;;;;;;;;;;5084738;28;20027;-75
2023/05/30 00:46:25;;;;;;;8.95;4.50;;;;;;;;;;5052318;28;20683;-75
2023/05/30 00:48:50;;;;;;;9.23;4.57;;;;;;;;;;5052350;28;20049;-75
2023/05/30 00:51:17;;;;;;;8.02;4.50;;;;;;;;;;5051824;28;20063;-75
2023/05/30 00:53:43;;;;;;;11.63;4.85;;;;;;;;;;5052400;28;20090;-75
2023/05/30 00:56:10;;;;;;;9.23;4.50;;;;;;;;;;5052123;28;20025;-75
2023/05/30 00:58:38;;;;;;;8.38;4.40;;;;;;;;;;5052165;28;20033;-75
2023/05/30 01:01:04;;;;;;;10.60;4.30;;;;;;;;;;5051908;28;20548;-74
2023/05/30 01:03:32;;;;;;;8.90;4.47;;;;;;;;;;5052122;28;20116;-75
2023/05/30 01:06:00;;;;;;;9.73;4.20;;;;;;;;;;5051830;28;20408;-75
2023/05/30 01:08:26;;;;;;;7.57;3.83;;;;;;;;;;5051564;28;20090;-75
2023/05/30 01:11:00;;;;;;;8.38;4.05;;;;;;;;;;5052012;28;20473;-75
2023/05/30 01:14:18;;;;;;;9.65;4.30;;;;;;;;;;5050671;28;20048;-75
2023/05/30 01:16:50;;;;;;;8.02;3.70;;;;;;;;;;5042040;28;20049;-75
2023/05/30 01:19:47;;;;;;;6.82;3.53;;;;;;;;;;5051591;28;20025;-75
2023/05/30 01:22:50;;;;;;;7.38;3.47;;;;;;;;;;5051070;28;20087;-74
2023/05/30 01:25:43;;;;;;;8.70;3.13;;;;;;;;;;5051718;28;20032;-75
2023/05/30 01:28:12;;;;;;;5.35;3.03;;;;;;;;;;5051332;28;20033;-75
2023/05/30 01:30:42;;;;;;;6.82;3.30;;;;;;;;;;5051658;28;20048;-75
2023/05/30 01:33:09;;;;;;;6.43;3.28;;;;;;;;;;5051463;28;20435;-75
2023/05/30 01:35:35;;;;;;;8.30;2.97;;;;;;;;;;5051335;28;20033;-75
2023/05/30 01:38:00;;;;;;;6.20;2.90;;;;;;;;;;5065893;28;20095;-75
2023/05/30 01:40:28;;;;;;;6.65;2.85;;;;;;;;;;5051646;28;20048;-75
2023/05/30 01:43:01;;;;;;;5.60;2.60;;;;;;;;;;5051045;28;20037;-74
2023/05/30 01:45:44;;;;;;;4.45;2.60;;;;;;;;;;5051508;28;20154;-75
2023/05/30 01:48:27;;;;;;;7.65;2.38;;;;;;;;;;5050813;28;20029;-75
2023/05/30 01:50:55;;;;;;;4.75;2.90;;;;;;;;;;5051273;28;20849;-75
2023/05/30 01:53:25;;;;;;;6.43;2.50;;;;;;;;;;5050473;28;20048;-75
2023/05/30 01:55:54;;;;;;;7.57;3.08;;;;;;;;;;5051081;28;20029;-75
2023/05/30 01:58:21;;;;;;;6.35;2.63;;;;;;;;;;5050834;28;20029;-75
2023/05/30 02:00:47;;;;;;;9.00;2.85;;;;;;;;;;5051179;28;20072;-75
2023/05/30 02:03:13;;;;;;;6.90;2.47;;;;;;;;;;5050701;28;20061;-75
2023/05/30 02:05:38;;;;;;;7.10;3.00;;;;;;;;;;5051109;28;20025;-75
2023/05/30 02:08:06;;;;;;;6.97;2.85;;;;;;;;;;5050117;28;20079;-75
2023/05/30 02:10:32;;;;;;;6.47;2.58;;;;;;;;;;5050784;28;20074;-75
2023/05/30 02:12:57;;;;;;;6.82;2.95;;;;;;;;;;5050522;28;20025;-75
2023/05/30 02:15:23;;;;;;;6.25;2.70;;;;;;;;;;5050890;28;20025;-75
2023/05/30 02:17:48;;;;;;;4.50;2.70;;;;;;;;;;5050413;28;20490;-75
2023/05/30 02:20:13;;;;;;;6.22;2.38;;;;;;;;;;5050727;28;20137;-75
2023/05/30 02:22:39;;;;;;;5.47;2.50;;;;;;;;;;5050379;28;20025;-75
2023/05/30 02:25:05;;;;;;;4.13;2.28;;;;;;;;;;5050601;28;20028;-75
2023/05/30 02:27:31;;;;;;;6.75;2.80;;;;;;;;;;5050148;28;20025;-75
2023/05/30 02:29:56;;;;;;;8.63;2.40;;;;;;;;;;5050542;28;20123;-75
2023/05/30 02:32:21;;;;;;;5.43;2.45;;;;;;;;;;5050198;28;20020;-75
2023/05/30 02:34:47;;;;;;;8.02;2.70;;;;;;;;;;5050458;28;20017;-75
2023/05/30 02:37:12;;;;;;;4.63;2.50;;;;;;;;;;5049868;28;20029;-75
2023/05/30 02:39:38;;;;;;;6.50;2.80;;;;;;;;;;5050189;28;20048;-75
2023/05/30 02:42:03;;;;;;;4.60;2.50;;;;;;;;;;5050064;28;20048;-75
2023/05/30 02:44:29;;;;;;;5.82;2.60;;;;;;;;;;5049952;28;20025;-75
2023/05/30 02:46:54;;;;;;;6.75;2.80;;;;;;;;;;5050109;28;20104;-75
2023/05/30 02:49:20;;;;;;;5.72;2.50;;;;;;;;;;5049996;28;20412;-75
2023/05/30 02:51:45;;;;;;;4.78;2.70;;;;;;;;;;5049675;28;20021;-75
2023/05/30 02:54:11;;;;;;;6.18;2.83;;;;;;;;;;5065372;28;20682;-75
2023/05/30 02:56:36;;;;;;;10.05;2.75;;;;;;;;;;5050070;28;20560;-75
2023/05/30 02:59:02;;;;;;;5.30;2.70;;;;;;;;;;5049708;28;20685;-75
2023/05/30 03:01:27;;;;;;;5.82;2.50;;;;;;;;;;5049164;28;20025;-75
2023/05/30 03:03:53;;;;;;;4.90;2.35;;;;;;;;;;5049571;28;20108;-75
2023/05/30 03:06:18;;;;;;;4.85;2.47;;;;;;;;;;5049367;28;20025;-75
2023/05/30 03:08:44;;;;;;;5.57;2.63;;;;;;;;;;5049424;28;20176;-75
2023/05/30 03:11:13;;;;;;;6.43;2.60;;;;;;;;;;5050046;28;20052;-75
2023/05/30 03:13:41;;;;;;;5.35;2.47;;;;;;;;;;5049739;28;20031;-75
2023/05/30 03:16:06;;;;;;;7.68;2.72;;;;;;;;;;5049890;28;20024;-75
2023/05/30 03:18:32;;;;;;;8.50;2.97;;;;;;;;;;5049430;28;20029;-75
2023/05/30 03:20:57;;;;;;;7.15;2.75;;;;;;;;;;5049612;28;20029;-75
2023/05/30 03:23:23;;;;;;;5.85;2.50;;;;;;;;;;5049059;28;20025;-75
2023/05/30 03:25:48;;;;;;;6.90;2.63;;;;;;;;;;5049662;28;20107;-75
2023/05/30 03:28:13;;;;;;;6.80;2.42;;;;;;;;;;5049334;28;20028;-75
2023/05/30 03:30:39;;;;;;;5.60;2.67;;;;;;;;;;5049766;28;20021;-75
2023/05/30 03:33:04;;;;;;;8.27;3.25;;;;;;;;;;5049344;28;20033;-75
2023/05/30 03:35:30;;;;;;;7.10;3.30;;;;;;;;;;5049517;28;20060;-75
2023/05/30 03:37:55;;;;;;;7.03;3.10;;;;;;;;;;5048591;28;20110;-75
2023/05/30 03:40:20;;;;;;;9.48;2.60;;;;;;;;;;5049471;28;20052;-75
2023/05/30 03:42:46;;;;;;;9.98;3.35;;;;;;;;;;5049007;28;20362;-75
2023/05/30 03:45:11;;;;;;;6.15;2.97;;;;;;;;;;5049354;28;20029;-75
2023/05/30 03:47:37;;;;;;;7.40;3.33;;;;;;;;;;5049310;28;20108;-75
2023/05/30 03:50:03;;;;;;;8.45;3.13;;;;;;;;;;5049061;28;20029;-75
2023/05/30 03:52:28;;;;;;;6.13;2.95;;;;;;;;;;5048696;28;20029;-75
2023/05/30 03:54:54;;;;;;;7.55;3.20;;;;;;;;;;5048982;28;20059;-75
2023/05/30 03:57:20;;;;;;;8.38;3.40;;;;;;;;;;5048983;28;20151;-75
2023/05/30 03:59:46;;;;;;;6.50;2.67;;;;;;;;;;5048773;28;20068;-75
2023/05/30 04:02:11;;;;;;;7.13;3.08;;;;;;;;;;5049169;28;20401;-75
2023/05/30 04:04:37;;;;;;;6.10;3.20;;;;;;;;;;5048854;28;20032;-75
2023/05/30 04:07:02;;;;;;;5.97;2.88;;;;;;;;;;5048662;28;20066;-75
2023/05/30 04:09:31;;;;;;;9.10;3.25;;;;;;;;;;5048663;28;20036;-76
2023/05/30 04:11:56;;;;;;;7.18;3.05;;;;;;;;;;5047914;28;20115;-75
2023/05/30 04:14:21;;;;;;;9.65;3.00;;;;;;;;;;5048662;28;20158;-75
2023/05/30 04:16:47;;;;;;;7.45;3.20;;;;;;;;;;5048889;28;20586;-75
2023/05/30 04:19:12;;;;;;;6.57;3.20;;;;;;;;;;5048323;28;20396;-75
2023/05/30 04:21:37;;;;;;;7.05;3.03;;;;;;;;;;5048491;28;20037;-75
2023/05/30 04:24:04;;;;;;;8.65;3.25;;;;;;;;;;5048856;28;20124;-75
2023/05/30 04:26:31;;;;;;;7.43;3.58;;;;;;;;;;5048945;28;20048;-75
2023/05/30 04:28:56;;;;;;;8.73;3.53;;;;;;;;;;5048424;28;20573;-75
2023/05/30 04:31:23;;;;;;;9.98;4.22;;;;;;;;;;5048650;28;20115;-75
2023/05/30 04:33:50;;;;;;;8.38;3.60;;;;;;;;;;5048338;28;20025;-75
2023/05/30 04:36:19;;;;;;;7.40;3.38;;;;;;;;;;5048272;28;20032;-75
2023/05/30 04:38:49;;;;;;;9.82;3.25;;;;;;;;;;5047147;28;20049;-75
2023/05/30 04:41:24;;;;;;;6.30;3.20;;;;;;;;;;5048811;28;20032;-75
2023/05/30 04:43:57;;;;;;;6.43;3.35;;;;;;;;;;5048404;28;20271;-75
2023/05/30 04:46:23;;;;;;;6.95;3.03;;;;;;;;;;5048547;28;20029;-75
2023/05/30 04:48:53;;;;;;;5.13;3.40;;;;;;;;;;5048370;28;20186;-75
2023/05/30 04:51:20;;;;;;;6.07;3.38;;;;;;;;;;5048110;28;20028;-75
2023/05/30 04:53:46;;;;;;;9.60;3.38;;;;;;;;;;5048282;28;20060;-75
2023/05/30 04:56:11;;;;;;;5.72;3.05;;;;;;;;;;5048619;28;20033;-75
2023/05/30 04:58:37;;;;;;;9.07;3.67;;;;;;;;;;5048411;28;20483;-75
2023/05/30 05:01:02;;;;;;;7.50;2.88;;;;;;;;;;5048416;28;20040;-75
2023/05/30 05:03:28;;;;;;;8.02;3.30;;;;;;;;;;5048520;28;20395;-75
2023/05/30 05:05:53;;;;;;;7.30;3.78;;;;;;;;;;5048196;28;20036;-75
2023/05/30 05:08:18;;;;;;;5.95;2.90;;;;;;;;;;5047954;28;20468;-75
2023/05/30 05:10:44;;;;;;;6.63;3.13;;;;;;;;;;5063227;28;20033;-75
2023/05/30 05:13:09;;;;;;;7.78;3.22;;;;;;;;;;5048394;28;20619;-75
2023/05/30 05:15:35;;;;;;;8.30;3.55;;;;;;;;;;5048139;28;20025;-75
2023/05/30 05:18:01;;;;;;;9.10;3.50;;;;;;;;;;5048379;28;20029;-75
2023/05/30 05:20:26;;;;;;;11.52;3.75;;;;;;;;;;5048099;28;20469;-74
2023/05/30 05:22:54;;;;;;;9.98;4.03;;;;;;;;;;5047897;28;20023;-74
2023/05/30 05:25:19;;;;;;;11.38;4.18;;;;;;;;;;5051523;28;20114;-75
2023/05/30 05:27:44;;;;;;;8.35;3.85;;;;;;;;;;5051863;28;20075;-75
2023/05/30 05:30:10;;;;;;;8.52;4.03;;;;;;;;;;5051489;28;20029;-75
2023/05/30 05:32:38;;;;;;;11.02;4.28;;;;;;;;;;5052172;28;20032;-77
2023/05/30 05:35:05;;;;;;;9.40;3.90;;;;;;;;;;5051675;28;20082;-75
2023/05/30 05:37:30;;;;;;;10.65;3.88;;;;;;;;;;5051225;28;20086;-74
2023/05/30 05:39:56;;;;;;;8.77;3.58;;;;;;;;;;5051601;28;20021;-75
2023/05/30 05:42:21;;;;;;;6.72;3.45;;;;;;;;;;5050746;28;20389;-75
2023/05/30 05:44:46;;;;;;;11.55;3.70;;;;;;;;;;5056904;28;20025;-75
2023/05/30 05:47:12;;;;;;;10.77;3.67;;;;;;;;;;5060482;28;20049;-74
2023/05/30 05:49:37;;;;;;;10.25;3.70;;;;;;;;;;5049845;28;20021;-74
2023/05/30 05:52:03;;;;;;;8.93;3.97;;;;;;;;;;5051103;28;20052;-75
2023/05/30 05:54:28;;;;;;;7.90;3.95;;;;;;;;;;5051434;28;20029;-75
2023/05/30 05:56:54;;;;;;;13.18;4.45;;;;;;;;;;5051447;28;20051;-74
2023/05/30 05:59:19;;;;;;;9.93;3.85;;;;;;;;;;5051154;28;20484;-75
2023/05/30 06:01:45;;;;;;;13.60;4.13;;;;;;;;;;5050960;28;20083;-77
2023/05/30 06:04:11;;;;;;;10.95;4.25;;;;;;;;;;5051081;28;20103;-75
2023/05/30 06:06:36;;;;;;;12.65;4.40;;;;;;;;;;5050665;28;20063;-74
2023/05/30 06:09:02;;;;;;;13.32;4.13;;;;;;;;;;5051055;28;20642;-74
2023/05/30 06:11:27;;;;;;;7.78;4.25;;;;;;;;;;5050807;28;20032;-74
2023/05/30 06:13:53;;;;;;;12.20;4.18;;;;;;;;;;5051363;28;20032;-74
2023/05/30 06:16:18;;;;;;;11.02;3.92;;;;;;;;;;5050776;28;20021;-75
2023/05/30 06:18:44;;;;;;;11.77;4.38;;;;;;;;;;5050931;28;20229;-74
2023/05/30 06:21:10;;;;;;;18.42;4.15;;;;;;;;;;5049266;28;20043;-75
2023/05/30 06:23:36;;;;;;;10.38;4.03;;;;;;;;;;5050419;28;20045;-75
2023/05/30 06:26:02;;;;;;;11.85;3.90;;;;;;;;;;5050729;28;20033;-75
2023/05/30 06:28:27;;;;;;;14.80;4.10;;;;;;;;;;5050858;28;20025;-75
2023/05/30 06:30:53;;;;;;;11.05;3.55;;;;;;;;;;5050307;28;20033;-75
2023/05/30 06:33:20;;;;;;;9.98;4.18;;;;;;;;;;5050673;28;20024;-74
2023/05/30 06:35:45;;;;;;;12.48;4.40;;;;;;;;;;5049534;28;20021;-75
2023/05/30 06:38:11;;;;;;;13.38;4.10;;;;;;;;;;5049951;28;20097;-74
2023/05/30 06:40:36;;;;;;;9.13;3.67;;;;;;;;;;5050030;28;20150;-74
2023/05/30 06:43:02;;;;;;;12.45;4.00;;;;;;;;;;5050433;28;20040;-75
2023/05/30 06:45:28;;;;;;;9.88;4.35;;;;;;;;;;5050316;28;20021;-75
2023/05/30 06:47:53;;;;;;;11.25;3.70;;;;;;;;;;5050387;28;20040;-75
2023/05/30 06:50:18;;;;;;;12.40;3.90;;;;;;;;;;5050169;28;20036;-75
2023/05/30 06:52:44;;;;;;;8.48;3.72;;;;;;;;;;5049984;28;20025;-75
2023/05/30 06:55:09;;;;;;;6.68;3.33;;;;;;;;;;5049908;28;20032;-75
2023/05/30 06:57:37;;;;;;;10.98;4.00;;;;;;;;;;5050098;28;20036;-75
2023/05/30 07:00:03;;;;;;;9.63;3.67;;;;;;;;;;5049831;28;20029;-75
2023/05/30 07:02:29;;;;;;;8.38;3.53;;;;;;;;;;5050157;28;20104;-75
2023/05/30 07:04:54;;;;;;;10.20;3.38;;;;;;;;;;5050096;28;20564;-75
2023/05/30 07:07:20;;;;;;;9.25;3.78;;;;;;;;;;5049727;28;20033;-75
2023/05/30 07:09:48;;;;;;;7.30;3.22;;;;;;;;;;5048696;28;20025;-75
2023/05/30 07:12:13;;;;;;;11.63;3.55;;;;;;;;;;5049372;28;20056;-75
2023/05/30 07:14:38;;;;;;;11.07;3.53;;;;;;;;;;5049769;28;20049;-75
2023/05/30 07:17:06;;;;;;;9.75;3.47;;;;;;;;;;5049676;28;20602;-75
2023/05/30 07:19:31;;;;;;;8.70;3.55;;;;;;;;;;5049822;28;20032;-75
2023/05/30 07:21:57;;;;;;;8.98;3.70;;;;;;;;;;5049319;28;20017;-75
2023/05/30 07:24:22;;;;;;;6.78;3.42;;;;;;;;;;5049929;28;20428;-74
2023/05/30 07:26:51;;;;;;;7.88;3.30;;;;;;;;;;5048229;28;20021;-75
2023/05/30 07:29:17;;;;;;;7.97;3.53;;;;;;;;;;5049582;28;20475;-75
2023/05/30 07:31:43;;;;;;;9.48;3.95;;;;;;;;;;5049049;28;20538;-75
2023/05/30 07:34:08;;;;;;;9.90;3.17;;;;;;;;;;5049632;28;20017;-75
2023/05/30 07:36:34;;;;;;;12.57;3.90;;;;;;;;;;5048932;28;20017;-75
2023/05/30 07:39:00;;;;;;;7.30;3.50;;;;;;;;;;5049411;28;20076;-75
2023/05/30 07:41:26;;;;;;;12.27;3.75;;;;;;;;;;5049096;28;20031;-75
2023/05/30 07:43:51;;;;;;;12.63;3.97;;;;;;;;;;5049334;28;20028;-75
2023/05/30 07:46:17;;;;;;;12.10;3.65;;;;;;;;;;5048942;28;20039;-75
2023/05/30 07:48:43;;;;;;;10.20;3.47;;;;;;;;;;5049256;28;20032;-75
2023/05/30 07:51:09;;;;;;;7.50;3.10;;;;;;;;;;5048927;28;20025;-76
2023/05/30 07:53:36;;;;;;;10.73;3.80;;;;;;;;;;5047565;28;20029;-75
2023/05/30 07:56:02;;;;;;;9.73;3.42;;;;;;;;;;5048946;28;20029;-75
2023/05/30 07:58:27;;;;;;;9.75;3.38;;;;;;;;;;5049238;28;20026;-75
2023/05/30 08:00:53;;;;;;;9.68;3.60;;;;;;;;;;5048574;28;20035;-75
2023/05/30 08:03:18;;;;;;;8.63;3.42;;;;;;;;;;5049106;28;20063;-75
2023/05/30 08:05:46;;;;;;;13.00;3.78;;;;;;;;;;5048776;28;20090;-75
2023/05/30 08:08:12;;;;;;;13.48;3.78;;;;;;;;;;5048528;28;20021;-75
2023/05/30 08:10:38;;;;;;;8.90;2.85;;;;;;;;;;5048782;28;20029;-75
2023/05/30 08:13:03;;;;;;;10.35;3.72;;;;;;;;;;5048643;28;20064;-75
2023/05/30 08:15:28;;;;;;;11.02;3.47;;;;;;;;;;5049072;28;20139;-75
2023/05/30 08:17:56;;;;;;;9.27;3.13;;;;;;;;;;5048737;28;20025;-75
2023/05/30 08:20:22;;;;;;;7.20;3.05;;;;;;;;;;5048882;28;20061;-75
2023/05/30 08:22:47;;;;;;;11.38;3.28;;;;;;;;;;5048105;28;20049;-75
2023/05/30 08:25:13;;;;;;;14.73;3.60;;;;;;;;;;5047214;28;20099;-75
2023/05/30 08:27:39;;;;;;;10.63;2.92;;;;;;;;;;5048635;28;20466;-75
2023/05/30 08:30:05;;;;;;;11.52;3.08;;;;;;;;;;5048878;28;20481;-75
2023/05/30 08:32:32;;;;;;;10.63;3.70;;;;;;;;;;5048316;28;20059;-75
2023/05/30 08:34:58;;;;;;;9.98;3.40;;;;;;;;;;5048763;28;20489;-75
2023/05/30 08:37:23;;;;;;;6.53;3.30;;;;;;;;;;5048199;28;20079;-75
2023/05/30 08:39:49;;;;;;;8.57;3.05;;;;;;;;;;5048575;28;20041;-75
2023/05/30 08:42:14;;;;;;;9.55;3.30;;;;;;;;;;5048217;28;20104;-75
2023/05/30 08:44:40;;;;;;;8.43;3.20;;;;;;;;;;5048587;28;20574;-75
2023/05/30 08:47:11;;;;;;;12.98;3.10;;;;;;;;;;5048504;28;20031;-75
2023/05/30 08:49:41;;;;;;;8.65;3.20;;;;;;;;;;5048832;28;20025;-75
2023/05/30 08:52:12;;;;;;;11.25;3.20;;;;;;;;;;5047808;28;20025;-75
2023/05/30 08:55:01;;;;;;;7.50;3.53;;;;;;;;;;5048667;28;20143;-74
2023/05/30 08:57:34;;;;;;;12.10;3.20;;;;;;;;;;5048264;28;20033;-75
2023/05/30 09:00:01;;;;;;;6.15;3.17;;;;;;;;;;5051821;28;20577;-75
2023/05/30 09:02:27;;;;;;;9.48;3.22;;;;;;;;;;5052036;28;20067;-75
2023/05/30 09:04:57;;;;;;;9.18;3.22;;;;;;;;;;5052325;28;20749;-75
2023/05/30 09:07:28;;;;;;;8.38;3.35;;;;;;;;;;5051924;28;20514;-75
2023/05/30 09:09:54;;;;;;;8.27;3.15;;;;;;;;;;5052421;28;20025;-75
2023/05/30 09:12:22;;;;;;;8.77;3.50;;;;;;;;;;5051998;28;20398;-75
2023/05/30 09:14:47;;;;;;;5.63;2.90;;;;;;;;;;5052187;28;20025;-75
2023/05/30 09:17:12;;;;;;;5.65;3.03;;;;;;;;;;5051704;28;20032;-75
2023/05/30 09:19:39;;;;;;;7.18;2.90;;;;;;;;;;5052025;28;20043;-75
2023/05/30 09:22:05;;;;;;;5.85;2.83;;;;;;;;;;5051501;28;20072;-75
2023/05/30 09:25:03;;;;;;;11.40;3.10;;;;;;;;;;5052053;28;20078;-75
2023/05/30 09:27:32;;;;;;;7.82;3.00;;;;;;;;;;5051836;28;20116;-75
2023/05/30 09:30:05;;;;;;;6.85;3.20;;;;;;;;;;5052024;28;20064;-75
2023/05/30 09:32:34;;;;;;;8.32;3.05;;;;;;;;;;5051374;28;20025;-75
2023/05/30 09:35:04;;;;;;;7.35;2.80;;;;;;;;;;5051924;28;20047;-75
2023/05/30 09:37:41;;;;;;;8.40;3.05;;;;;;;;;;5050870;28;20043;-75
2023/05/30 09:40:15;;;;;;;8.57;3.13;;;;;;;;;;5051693;28;20024;-75
2023/05/30 09:42:52;;;;;;;6.95;3.15;;;;;;;;;;5051470;28;20100;-75
2023/05/30 09:45:23;;;;;;;6.00;2.90;;;;;;;;;;5051704;28;20017;-74
2023/05/30 09:47:50;;;;;;;11.30;3.08;;;;;;;;;;5051514;28;20547;-75
2023/05/30 09:50:20;;;;;;;6.93;2.97;;;;;;;;;;5051490;28;20666;-75
2023/05/30 09:52:49;;;;;;;9.57;2.78;;;;;;;;;;5050620;28;20035;-75
2023/05/30 09:55:15;;;;;;;9.90;2.90;;;;;;;;;;5051402;28;20033;-76
2023/05/30 09:57:46;;;;;;;6.38;3.25;;;;;;;;;;5051166;28;20095;-75
2023/05/30 10:00:15;;;;;;;7.25;2.88;;;;;;;;;;5051440;28;20499;-75
2023/05/30 10:02:43;;;;;;;6.22;3.03;;;;;;;;;;5050943;28;20029;-75
2023/05/30 10:05:22;;;;;;;7.00;3.20;;;;;;;;;;5051130;28;20062;-75
2023/05/30 10:07:50;;;;;;;7.50;3.03;;;;;;;;;;5050705;28;20017;-74
2023/05/30 10:10:16;;;;;;;7.95;2.97;;;;;;;;;;5051131;28;20557;-75
2023/05/30 10:12:43;;;;;;;9.25;3.33;;;;;;;;;;5050660;28;20032;-75
2023/05/30 10:15:10;;;;;;;8.18;3.08;;;;;;;;;;5050836;28;20044;-75
2023/05/30 10:17:38;;;;;;;9.07;3.53;;;;;;;;;;5050924;28;20045;-75
2023/05/30 10:20:09;;;;;;;6.68;3.08;;;;;;;;;;5050961;28;20578;-75
2023/05/30 10:22:42;;;;;;;6.18;2.80;;;;;;;;;;5050382;28;20122;-75
2023/05/30 10:25:08;;;;;;;6.75;3.28;;;;;;;;;;5050841;28;20027;-75
2023/05/30 10:27:49;;;;;;;9.70;3.15;;;;;;;;;;5050564;28;20052;-75
2023/05/30 10:30:17;;;;;;;;;;;;;;;;;;5051047;28;20029;-75
2023/05/30 10:32:47;;;;;;;8.95;3.05;;;;;;;;;;5050297;28;19912;-75
2023/05/30 10:35:18;;;;;;;6.22;2.78;;;;;;;;;;5050772;28;20083;-74
2023/05/30 10:37:45;;;;;;;6.43;2.92;;;;;;;;;;5049880;28;20021;-75
2023/05/30 10:40:57;;;;;;;7.47;2.88;;;;;;;;;;5050653;28;20396;-74
2023/05/30 10:43:35;;;;;;;8.05;3.00;;;;;;;;;;5048730;28;20037;-74
2023/05/30 10:46:19;;;;;;;7.57;2.97;;;;;;;;;;5050660;28;20508;-75
2023/05/30 10:49:06;;;;;;;6.85;3.10;;;;;;;;;;5050042;28;20020;-77
2023/05/30 10:51:57;;;;;;;7.93;3.30;;;;;;;;;;5049933;28;20071;-75
2023/05/30 10:54:24;;;;;;;5.72;2.45;;;;;;;;;;5049605;28;20045;-75
2023/05/30 10:56:51;;;;;;;6.57;3.28;;;;;;;;;;5050135;28;20409;-74
2023/05/30 10:59:20;;;;;;;7.18;2.90;;;;;;;;;;5049936;28;20036;-75
2023/05/30 11:01:58;;;;;;;5.18;2.80;;;;;;;;;;5050317;28;20446;-75
2023/05/30 11:04:29;;;;;;;9.23;3.38;;;;;;;;;;5049699;28;20025;-74
2023/05/30 11:06:55;;;;;;;9.48;3.10;;;;;;;;;;5049758;28;20021;-75
2023/05/30 11:09:20;;;;;;;6.47;3.10;;;;;;;;;;5049919;28;20032;-75
2023/05/30 11:11:54;;;;;;;6.28;2.70;;;;;;;;;;5049908;28;20457;-75
2023/05/30 11:14:39;;;;;;;9.48;2.97;;;;;;;;;;5049599;28;20025;-75
2023/05/30 11:17:08;;;;;;;6.30;2.97;;;;;;;;;;5049980;28;20109;-75
2023/05/30 11:19:37;;;;;;;5.90;3.00;;;;;;;;;;5049633;28;20075;-75
2023/05/30 11:22:13;;;;;;;6.53;3.45;;;;;;;;;;5048867;28;20039;-75
2023/05/30 11:24:40;;;;;;;5.32;3.00;;;;;;;;;;5049254;28;20385;-75
2023/05/30 11:27:13;;;;;;;5.35;2.70;;;;;;;;;;5049816;28;20503;-76
2023/05/30 11:29:47;;;;;;;5.53;2.78;;;;;;;;;;5049425;28;20067;-75
2023/05/30 11:32:17;;;;;;;5.88;3.00;;;;;;;;;;5049682;28;20060;-74
2023/05/30 11:34:42;;;;;;;6.40;3.00;;;;;;;;;;5049126;28;20481;-75
2023/05/30 11:37:08;;;;;;;4.75;2.78;;;;;;;;;;5049022;28;20039;-75
2023/05/30 11:39:36;;;;;;;6.55;3.10;;;;;;;;;;5049138;28;20183;-75
2023/05/30 11:42:05;;;;;;;5.43;2.90;;;;;;;;;;5049446;28;20524;-75
2023/05/30 11:44:31;;;;;;;6.65;2.75;;;;;;;;;;5048953;28;20537;-75
2023/05/30 11:47:07;;;;;;;5.88;2.80;;;;;;;;;;5049452;28;20039;-74
2023/05/30 11:49:33;;;;;;;7.88;3.03;;;;;;;;;;5048957;28;20408;-75
2023/05/30 11:51:58;;;;;;;5.47;2.92;;;;;;;;;;5049122;28;20518;-75
2023/05/30 11:54:25;;;;;;;5.07;2.90;;;;;;;;;;5048778;28;20029;-75
2023/05/30 11:56:50;;;;;;;5.38;3.10;;;;;;;;;;5049028;28;20029;-75
2023/05/30 11:59:20;;;;;;;5.18;3.13;;;;;;;;;;5048962;28;20056;-75
2023/05/30 12:01:57;;;;;;;8.63;2.97;;;;;;;;;;5049070;28;20028;-75
2023/05/30 12:04:33;;;;;;;6.22;2.90;;;;;;;;;;5048790;28;20473;-74
2023/05/30 12:07:00;;;;;;;8.52;3.25;;;;;;;;;;5048873;28;20060;-75
2023/05/30 12:09:26;;;;;;;6.28;2.80;;;;;;;;;;5048948;28;20500;-75
2023/05/30 12:11:57;;;;;;;6.57;3.10;;;;;;;;;;5048979;28;20493;-75
2023/05/30 12:14:41;;;;;;;6.32;2.97;;;;;;;;;;5047241;28;20073;-75
2023/05/30 12:17:14;;;;;;;7.65;3.08;;;;;;;;;;5048962;28;20280;-75
2023/05/30 12:19:44;;;;;;;7.47;2.95;;;;;;;;;;5048704;28;20049;-75
2023/05/30 12:22:15;;;;;;;8.73;3.17;;;;;;;;;;5048589;28;20381;-75
2023/05/30 12:24:42;;;;;;;6.03;3.00;;;;;;;;;;5048497;28;20032;-75
2023/05/30 12:27:16;;;;;;;7.13;3.08;;;;;;;;;;5048935;28;20564;-74
2023/05/30 12:29:42;;;;;;;6.30;3.03;;;;;;;;;;5048644;28;20025;-75
2023/05/30 12:32:08;;;;;;;5.30;2.88;;;;;;;;;;5048629;28;20508;-74
2023/05/30 12:34:47;;;;;;;5.95;2.85;;;;;;;;;;5051163;28;20025;-74
2023/05/30 12:37:14;;;;;;;7.38;3.42;;;;;;;;;;5052633;28;20090;-75
2023/05/30 12:39:59;;;;;;;6.03;2.70;;;;;;;;;;5052778;28;20128;-75
2023/05/30 12:42:26;;;;;;;5.65;2.90;;;;;;;;;;5052984;28;20366;-75
2023/05/30 12:44:54;;;;;;;6.40;3.08;;;;;;;;;;5052506;28;20518;-75
2023/05/30 12:47:21;;;;;;;5.03;2.90;;;;;;;;;;5052785;28;20063;-75
2023/05/30 12:49:46;;;;;;;8.48;3.25;;;;;;;;;;5052212;28;20029;-75
2023/05/30 12:52:13;;;;;;;5.05;2.75;;;;;;;;;;5052085;28;20062;-75
2023/05/30 12:54:41;;;;;;;9.40;3.40;;;;;;;;;;5052207;28;20052;-75
2023/05/30 12:57:08;;;;;;;4.95;2.97;;;;;;;;;;5052892;28;20813;-75
2023/05/30 12:59:33;;;;;;;5.13;2.55;;;;;;;;;;5052490;28;20025;-75
2023/05/30 13:01:59;;;;;;;4.95;2.90;;;;;;;;;;5052427;28;20039;-75
2023/05/30 13:04:24;;;;;;;7.32;3.20;;;;;;;;;;5052040;28;20503;-75
2023/05/30 13:06:50;;;;;;;7.20;3.40;;;;;;;;;;5051932;28;20036;-75
2023/05/30 13:09:16;;;;;;;7.43;2.90;;;;;;;;;;5052102;28;20037;-75
2023/05/30 13:11:42;;;;;;;5.45;2.70;;;;;;;;;;5052149;28;20025;-75
2023/05/30 13:14:07;;;;;;;5.60;2.78;;;;;;;;;;5051798;28;20021;-75
2023/05/30 13:16:34;;;;;;;6.03;2.85;;;;;;;;;;5052322;28;20020;-75
2023/05/30 13:19:00;;;;;;;5.78;2.70;;;;;;;;;;5052094;28;20028;-75
2023/05/30 13:21:26;;;;;;;5.18;2.75;;;;;;;;;;5051740;28;20021;-75
2023/05/30 13:23:51;;;;;;;6.28;3.03;;;;;;;;;;5050432;28;20028;-75
2023/05/30 13:26:17;;;;;;;4.63;2.70;;;;;;;;;;5051777;28;20033;-75
2023/05/30 13:28:42;;;;;;;5.20;2.63;;;;;;;;;;5052000;28;20025;-75
2023/05/30 13:31:07;;;;;;;9.40;2.60;;;;;;;;;;5050272;28;20025;-74
2023/05/30 13:33:33;;;;;;;5.28;2.85;;;;;;;;;;5051827;28;20118;-75
2023/05/30 13:35:59;;;;;;;7.15;2.95;;;;;;;;;;5051524;28;20029;-75
2023/05/30 13:38:25;;;;;;;5.72;2.83;;;;;;;;;;5051453;28;20090;-75
2023/05/30 13:40:52;;;;;;;6.75;2.80;;;;;;;;;;5051476;28;20029;-75
2023/05/30 13:43:17;;;;;;;6.78;2.90;;;;;;;;;;5051614;28;20029;-75
2023/05/30 13:45:43;;;;;;;7.80;2.67;;;;;;;;;;5050717;28;20040;-75
2023/05/30 13:48:09;;;;;;;10.70;3.40;;;;;;;;;;5051476;28;20033;-75
2023/05/30 13:50:37;;;;;;;5.50;2.65;;;;;;;;;;5051459;28;20033;-75
2023/05/30 13:53:03;;;;;;;4.88;2.78;;;;;;;;;;5051234;28;20032;-75
2023/05/30 13:55:29;;;;;;;9.90;2.92;;;;;;;;;;5049731;28;20021;-75
2023/05/30 13:57:55;;;;;;;5.13;2.70;;;;;;;;;;5051467;28;20111;-75
2023/05/30 14:00:21;;;;;;;7.53;3.00;;;;;;;;;;5051149;28;20107;-75
2023/05/30 14:02:46;;;;;;;5.22;2.63;;;;;;;;;;5051126;28;20487;-75
2023/05/30 14:05:13;;;;;;;4.82;2.75;;;;;;;;;;5051048;28;20032;-75
2023/05/30 14:07:38;;;;;;;6.15;3.00;;;;;;;;;;5051006;28;20084;-75
2023/05/30 14:10:04;;;;;;;5.72;2.97;;;;;;;;;;5049778;28;20025;-75
2023/05/30 14:12:29;;;;;;;6.57;3.15;;;;;;;;;;5051292;28;20032;-75
2023/05/30 14:14:58;;;;;;;7.88;3.05;;;;;;;;;;5050603;28;20088;-75
2023/05/30 14:17:24;;;;;;;7.68;3.10;;;;;;;;;;5051083;28;20029;-75
2023/05/30 14:19:49;;;;;;;9.18;2.80;;;;;;;;;;5050707;28;20110;-75
2023/05/30 14:22:15;;;;;;;5.40;3.00;;;;;;;;;;5050658;28;20075;-75
2023/05/30 14:24:41;;;;;;;6.15;2.90;;;;;;;;;;5050781;28;20031;-75
2023/05/30 14:27:06;;;;;;;6.15;2.75;;;;;;;;;;5050697;28;20448;-75
2023/05/30 14:29:32;;;;;;;7.13;2.80;;;;;;;;;;5051012;28;20021;-74
2023/05/30 14:31:58;;;;;;;6.57;2.83;;;;;;;;;;5050649;28;20034;-75
2023/05/30 14:34:24;;;;;;;7.18;3.00;;;;;;;;;;5050484;28;20606;-75
2023/05/30 14:36:49;;;;;;;5.25;2.70;;;;;;;;;;5050127;28;20064;-75
2023/05/30 14:39:14;;;;;;;6.07;2.90;;;;;;;;;;5050402;28;20128;-75
2023/05/30 14:41:40;;;;;;;7.10;2.92;;;;;;;;;;5050395;28;20048;-75
2023/05/30 14:44:06;;;;;;;4.85;2.55;;;;;;;;;;5050722;28;20031;-75